sensor_id;sensor_type;location;lat;lon;timestamp;P1;durP1;ratioP1;P2;durP2;ratioP2
18716;SDS011;9487;50.892;6.906;2022-12-24T00:02:18;13.90;;;3.80;;
18716;SDS011;9487;50.892;6.906;2022-12-24T00:04:45;16.77;;;4.30;;
18716;SDS011;9487;50.892;6.906;2022-12-24T00:07:12;17.13;;;4.57;;
18716;SDS011;9487;50.892;6.906;2022-12-24T00:09:39;15.97;;;4.23;;
18716;SDS011;9487;50.892;6.906;2022-12-24T00:12:07;14.40;;;3.77;;
18716;SDS011;9487;50.892;6.906;2022-12-24T00:14:34;18.43;;;4.90;;
18716;SDS011;9487;50.892;6.906;2022-12-24T00:17:01;12.00;;;3.67;;
18716;SDS011;9487;50.892;6.906;2022-12-24T00:19:28;17.33;;;3.70;;
18716;SDS011;9487;50.892;6.906;2022-12-24T00:21:54;19.77;;;3.77;;
18716;SDS011;9487;50.892;6.906;2022-12-24T00:24:21;12.37;;;3.57;;
18716;SDS011;9487;50.892;6.906;2022-12-24T00:26:48;18.70;;;4.37;;
18716;SDS011;9487;50.892;6.906;2022-12-24T00:29:16;21.50;;;4.00;;
18716;SDS011;9487;50.892;6.906;2022-12-24T00:31:43;17.33;;;4.23;;
18716;SDS011;9487;50.892;6.906;2022-12-24T00:34:10;21.20;;;4.37;;
18716;SDS011;9487;50.892;6.906;2022-12-24T00:36:37;20.57;;;4.73;;
18716;SDS011;9487;50.892;6.906;2022-12-24T00:39:04;16.60;;;4.80;;
18716;SDS011;9487;50.892;6.906;2022-12-24T00:41:30;16.07;;;4.47;;
18716;SDS011;9487;50.892;6.906;2022-12-24T00:43:58;18.70;;;5.03;;
18716;SDS011;9487;50.892;6.906;2022-12-24T00:46:28;16.37;;;4.37;;
18716;SDS011;9487;50.892;6.906;2022-12-24T00:48:55;18.37;;;4.73;;
18716;SDS011;9487;50.892;6.906;2022-12-24T00:51:22;17.30;;;4.47;;
18716;SDS011;9487;50.892;6.906;2022-12-24T00:53:50;20.03;;;4.67;;
18716;SDS011;9487;50.892;6.906;2022-12-24T00:56:17;12.57;;;3.83;;
18716;SDS011;9487;50.892;6.906;2022-12-24T00:58:44;18.80;;;4.00;;
18716;SDS011;9487;50.892;6.906;2022-12-24T01:01:11;13.77;;;3.43;;
18716;SDS011;9487;50.892;6.906;2022-12-24T01:03:39;15.50;;;4.23;;
18716;SDS011;9487;50.892;6.906;2022-12-24T01:06:07;13.23;;;3.40;;
18716;SDS011;9487;50.892;6.906;2022-12-24T01:08:35;15.30;;;3.43;;
18716;SDS011;9487;50.892;6.906;2022-12-24T01:11:03;14.37;;;3.67;;
18716;SDS011;9487;50.892;6.906;2022-12-24T01:13:30;20.37;;;4.03;;
18716;SDS011;9487;50.892;6.906;2022-12-24T01:15:57;13.07;;;3.30;;
18716;SDS011;9487;50.892;6.906;2022-12-24T01:18:24;16.40;;;3.43;;
18716;SDS011;9487;50.892;6.906;2022-12-24T01:20:56;17.07;;;3.70;;
18716;SDS011;9487;50.892;6.906;2022-12-24T01:23:24;12.83;;;2.87;;
18716;SDS011;9487;50.892;6.906;2022-12-24T01:25:51;14.10;;;3.60;;
18716;SDS011;9487;50.892;6.906;2022-12-24T01:28:18;12.03;;;3.43;;
18716;SDS011;9487;50.892;6.906;2022-12-24T01:30:46;13.93;;;3.00;;
18716;SDS011;9487;50.892;6.906;2022-12-24T01:33:13;15.10;;;4.10;;
18716;SDS011;9487;50.892;6.906;2022-12-24T01:35:40;11.70;;;3.33;;
18716;SDS011;9487;50.892;6.906;2022-12-24T01:38:09;18.37;;;3.70;;
18716;SDS011;9487;50.892;6.906;2022-12-24T01:40:37;16.53;;;3.70;;
18716;SDS011;9487;50.892;6.906;2022-12-24T01:43:22;17.20;;;4.43;;
18716;SDS011;9487;50.892;6.906;2022-12-24T01:45:52;14.70;;;3.90;;
18716;SDS011;9487;50.892;6.906;2022-12-24T01:51:06;20.20;;;3.90;;
18716;SDS011;9487;50.892;6.906;2022-12-24T01:53:39;17.03;;;4.50;;
18716;SDS011;9487;50.892;6.906;2022-12-24T01:56:10;17.10;;;4.30;;
18716;SDS011;9487;50.892;6.906;2022-12-24T01:58:37;14.60;;;3.50;;
18716;SDS011;9487;50.892;6.906;2022-12-24T02:01:08;14.23;;;4.10;;
18716;SDS011;9487;50.892;6.906;2022-12-24T02:03:35;13.13;;;3.63;;
18716;SDS011;9487;50.892;6.906;2022-12-24T02:06:01;13.10;;;4.10;;
18716;SDS011;9487;50.892;6.906;2022-12-24T02:08:29;17.67;;;3.37;;
18716;SDS011;9487;50.892;6.906;2022-12-24T02:11:10;13.03;;;3.43;;
18716;SDS011;9487;50.892;6.906;2022-12-24T02:13:37;12.50;;;3.50;;
18716;SDS011;9487;50.892;6.906;2022-12-24T02:16:07;15.20;;;3.17;;
18716;SDS011;9487;50.892;6.906;2022-12-24T02:18:43;14.23;;;3.73;;
18716;SDS011;9487;50.892;6.906;2022-12-24T02:21:27;11.80;;;3.30;;
18716;SDS011;9487;50.892;6.906;2022-12-24T02:24:26;14.83;;;3.73;;
18716;SDS011;9487;50.892;6.906;2022-12-24T02:27:21;13.63;;;3.33;;
18716;SDS011;9487;50.892;6.906;2022-12-24T02:32:53;14.03;;;3.80;;
18716;SDS011;9487;50.892;6.906;2022-12-24T02:35:41;19.00;;;3.77;;
18716;SDS011;9487;50.892;6.906;2022-12-24T02:38:14;19.20;;;4.60;;
18716;SDS011;9487;50.892;6.906;2022-12-24T02:40:45;17.63;;;4.30;;
18716;SDS011;9487;50.892;6.906;2022-12-24T02:43:16;23.63;;;4.73;;
18716;SDS011;9487;50.892;6.906;2022-12-24T02:45:50;18.77;;;4.77;;
18716;SDS011;9487;50.892;6.906;2022-12-24T02:48:19;15.47;;;4.27;;
18716;SDS011;9487;50.892;6.906;2022-12-24T02:50:55;13.23;;;3.53;;
18716;SDS011;9487;50.892;6.906;2022-12-24T02:53:22;14.53;;;4.13;;
18716;SDS011;9487;50.892;6.906;2022-12-24T02:55:52;16.43;;;4.07;;
18716;SDS011;9487;50.892;6.906;2022-12-24T02:58:42;15.70;;;3.73;;
18716;SDS011;9487;50.892;6.906;2022-12-24T03:01:20;19.73;;;4.40;;
18716;SDS011;9487;50.892;6.906;2022-12-24T03:03:59;17.00;;;3.97;;
18716;SDS011;9487;50.892;6.906;2022-12-24T03:06:38;12.73;;;3.80;;
18716;SDS011;9487;50.892;6.906;2022-12-24T03:09:12;16.77;;;3.80;;
18716;SDS011;9487;50.892;6.906;2022-12-24T03:11:45;10.73;;;3.53;;
18716;SDS011;9487;50.892;6.906;2022-12-24T03:14:18;12.03;;;3.20;;
18716;SDS011;9487;50.892;6.906;2022-12-24T03:16:48;10.43;;;3.17;;
18716;SDS011;9487;50.892;6.906;2022-12-24T03:19:15;11.37;;;3.37;;
18716;SDS011;9487;50.892;6.906;2022-12-24T03:21:42;12.90;;;3.00;;
18716;SDS011;9487;50.892;6.906;2022-12-24T03:24:10;11.83;;;3.30;;
18716;SDS011;9487;50.892;6.906;2022-12-24T03:26:38;9.57;;;2.83;;
18716;SDS011;9487;50.892;6.906;2022-12-24T03:29:05;10.87;;;2.80;;
18716;SDS011;9487;50.892;6.906;2022-12-24T03:31:42;10.37;;;2.40;;
18716;SDS011;9487;50.892;6.906;2022-12-24T03:34:13;9.47;;;2.57;;
18716;SDS011;9487;50.892;6.906;2022-12-24T03:36:40;8.27;;;2.10;;
18716;SDS011;9487;50.892;6.906;2022-12-24T03:39:08;9.77;;;2.80;;
18716;SDS011;9487;50.892;6.906;2022-12-24T03:41:35;8.07;;;2.20;;
18716;SDS011;9487;50.892;6.906;2022-12-24T03:44:02;7.50;;;2.70;;
18716;SDS011;9487;50.892;6.906;2022-12-24T03:46:29;9.43;;;2.80;;
18716;SDS011;9487;50.892;6.906;2022-12-24T03:48:56;7.37;;;2.17;;
18716;SDS011;9487;50.892;6.906;2022-12-24T03:51:24;8.20;;;2.27;;
18716;SDS011;9487;50.892;6.906;2022-12-24T03:53:52;11.93;;;3.33;;
18716;SDS011;9487;50.892;6.906;2022-12-24T03:56:20;9.80;;;2.47;;
18716;SDS011;9487;50.892;6.906;2022-12-24T03:58:46;6.33;;;2.43;;
18716;SDS011;9487;50.892;6.906;2022-12-24T04:01:14;9.23;;;2.37;;
18716;SDS011;9487;50.892;6.906;2022-12-24T04:03:41;7.70;;;2.40;;
18716;SDS011;9487;50.892;6.906;2022-12-24T04:06:09;7.53;;;2.20;;
18716;SDS011;9487;50.892;6.906;2022-12-24T04:08:38;6.33;;;1.80;;
18716;SDS011;9487;50.892;6.906;2022-12-24T04:11:06;6.37;;;1.70;;
18716;SDS011;9487;50.892;6.906;2022-12-24T04:13:34;7.73;;;1.83;;
18716;SDS011;9487;50.892;6.906;2022-12-24T04:16:02;6.53;;;2.90;;
18716;SDS011;9487;50.892;6.906;2022-12-24T04:18:30;5.03;;;1.70;;
18716;SDS011;9487;50.892;6.906;2022-12-24T04:20:57;7.47;;;1.90;;
18716;SDS011;9487;50.892;6.906;2022-12-24T04:23:24;6.97;;;1.70;;
18716;SDS011;9487;50.892;6.906;2022-12-24T04:25:52;4.60;;;2.13;;
18716;SDS011;9487;50.892;6.906;2022-12-24T04:28:19;4.83;;;1.60;;
18716;SDS011;9487;50.892;6.906;2022-12-24T04:30:46;6.13;;;1.97;;
18716;SDS011;9487;50.892;6.906;2022-12-24T04:33:12;6.20;;;1.70;;
18716;SDS011;9487;50.892;6.906;2022-12-24T04:35:39;4.23;;;1.40;;
18716;SDS011;9487;50.892;6.906;2022-12-24T04:38:06;4.03;;;1.13;;
18716;SDS011;9487;50.892;6.906;2022-12-24T04:40:34;8.27;;;1.67;;
18716;SDS011;9487;50.892;6.906;2022-12-24T04:43:02;3.47;;;1.30;;
18716;SDS011;9487;50.892;6.906;2022-12-24T04:45:29;3.40;;;1.20;;
18716;SDS011;9487;50.892;6.906;2022-12-24T04:47:56;3.87;;;1.17;;
18716;SDS011;9487;50.892;6.906;2022-12-24T04:50:23;6.13;;;1.40;;
18716;SDS011;9487;50.892;6.906;2022-12-24T04:52:50;3.67;;;1.50;;
18716;SDS011;9487;50.892;6.906;2022-12-24T04:55:17;4.30;;;1.70;;
18716;SDS011;9487;50.892;6.906;2022-12-24T04:57:44;5.57;;;1.60;;
18716;SDS011;9487;50.892;6.906;2022-12-24T05:00:12;5.70;;;2.10;;
18716;SDS011;9487;50.892;6.906;2022-12-24T05:02:39;4.17;;;1.53;;
18716;SDS011;9487;50.892;6.906;2022-12-24T05:05:07;4.07;;;1.60;;
18716;SDS011;9487;50.892;6.906;2022-12-24T05:07:34;6.50;;;2.17;;
18716;SDS011;9487;50.892;6.906;2022-12-24T05:10:00;4.97;;;1.60;;
18716;SDS011;9487;50.892;6.906;2022-12-24T05:12:27;4.97;;;1.50;;
18716;SDS011;9487;50.892;6.906;2022-12-24T05:14:54;3.23;;;1.40;;
18716;SDS011;9487;50.892;6.906;2022-12-24T05:17:22;6.67;;;1.93;;
18716;SDS011;9487;50.892;6.906;2022-12-24T05:19:49;4.67;;;1.37;;
18716;SDS011;9487;50.892;6.906;2022-12-24T05:22:16;7.47;;;2.30;;
18716;SDS011;9487;50.892;6.906;2022-12-24T05:25:00;6.63;;;2.03;;
18716;SDS011;9487;50.892;6.906;2022-12-24T05:27:44;5.17;;;2.00;;
18716;SDS011;9487;50.892;6.906;2022-12-24T05:30:12;7.03;;;1.90;;
18716;SDS011;9487;50.892;6.906;2022-12-24T05:32:40;9.00;;;2.30;;
18716;SDS011;9487;50.892;6.906;2022-12-24T05:35:07;5.97;;;2.20;;
18716;SDS011;9487;50.892;6.906;2022-12-24T05:37:34;7.23;;;2.37;;
18716;SDS011;9487;50.892;6.906;2022-12-24T05:40:01;8.07;;;2.37;;
18716;SDS011;9487;50.892;6.906;2022-12-24T05:42:27;10.67;;;2.67;;
18716;SDS011;9487;50.892;6.906;2022-12-24T05:44:54;10.07;;;3.30;;
18716;SDS011;9487;50.892;6.906;2022-12-24T05:47:21;9.27;;;2.90;;
18716;SDS011;9487;50.892;6.906;2022-12-24T05:49:49;11.60;;;3.13;;
18716;SDS011;9487;50.892;6.906;2022-12-24T05:52:16;12.27;;;2.90;;
18716;SDS011;9487;50.892;6.906;2022-12-24T05:54:43;12.37;;;3.10;;
18716;SDS011;9487;50.892;6.906;2022-12-24T05:57:10;11.57;;;3.37;;
18716;SDS011;9487;50.892;6.906;2022-12-24T05:59:37;10.17;;;3.23;;
18716;SDS011;9487;50.892;6.906;2022-12-24T06:02:04;11.20;;;3.30;;
18716;SDS011;9487;50.892;6.906;2022-12-24T06:04:30;10.40;;;3.70;;
18716;SDS011;9487;50.892;6.906;2022-12-24T06:06:59;12.47;;;3.23;;
18716;SDS011;9487;50.892;6.906;2022-12-24T06:09:25;13.57;;;3.67;;
18716;SDS011;9487;50.892;6.906;2022-12-24T06:11:52;13.33;;;3.97;;
18716;SDS011;9487;50.892;6.906;2022-12-24T06:14:19;12.77;;;3.67;;
18716;SDS011;9487;50.892;6.906;2022-12-24T06:16:46;10.43;;;3.37;;
18716;SDS011;9487;50.892;6.906;2022-12-24T06:19:12;12.10;;;3.13;;
18716;SDS011;9487;50.892;6.906;2022-12-24T06:21:39;12.80;;;3.57;;
18716;SDS011;9487;50.892;6.906;2022-12-24T06:24:08;11.73;;;3.70;;
18716;SDS011;9487;50.892;6.906;2022-12-24T06:26:34;12.53;;;3.70;;
18716;SDS011;9487;50.892;6.906;2022-12-24T06:29:01;14.90;;;3.87;;
18716;SDS011;9487;50.892;6.906;2022-12-24T06:31:28;12.63;;;3.73;;
18716;SDS011;9487;50.892;6.906;2022-12-24T06:33:55;13.47;;;3.80;;
18716;SDS011;9487;50.892;6.906;2022-12-24T06:36:22;18.40;;;4.27;;
18716;SDS011;9487;50.892;6.906;2022-12-24T06:38:51;18.20;;;4.17;;
18716;SDS011;9487;50.892;6.906;2022-12-24T06:41:21;13.13;;;3.90;;
18716;SDS011;9487;50.892;6.906;2022-12-24T06:43:49;14.77;;;4.43;;
18716;SDS011;9487;50.892;6.906;2022-12-24T06:46:17;14.63;;;4.57;;
18716;SDS011;9487;50.892;6.906;2022-12-24T06:48:45;14.87;;;4.30;;
18716;SDS011;9487;50.892;6.906;2022-12-24T06:51:13;16.67;;;4.13;;
18716;SDS011;9487;50.892;6.906;2022-12-24T06:53:41;16.80;;;4.43;;
18716;SDS011;9487;50.892;6.906;2022-12-24T06:56:08;11.57;;;3.63;;
18716;SDS011;9487;50.892;6.906;2022-12-24T06:58:38;18.50;;;4.23;;
18716;SDS011;9487;50.892;6.906;2022-12-24T07:01:06;14.03;;;4.03;;
18716;SDS011;9487;50.892;6.906;2022-12-24T07:03:34;18.17;;;5.00;;
18716;SDS011;9487;50.892;6.906;2022-12-24T07:06:01;19.83;;;4.27;;
18716;SDS011;9487;50.892;6.906;2022-12-24T07:08:28;16.40;;;4.77;;
18716;SDS011;9487;50.892;6.906;2022-12-24T07:10:57;15.43;;;4.90;;
18716;SDS011;9487;50.892;6.906;2022-12-24T07:13:25;19.13;;;4.67;;
18716;SDS011;9487;50.892;6.906;2022-12-24T07:15:57;16.60;;;4.33;;
18716;SDS011;9487;50.892;6.906;2022-12-24T07:18:24;21.73;;;4.80;;
18716;SDS011;9487;50.892;6.906;2022-12-24T07:20:51;22.73;;;4.87;;
18716;SDS011;9487;50.892;6.906;2022-12-24T07:23:18;18.07;;;4.87;;
18716;SDS011;9487;50.892;6.906;2022-12-24T07:25:44;21.90;;;4.57;;
18716;SDS011;9487;50.892;6.906;2022-12-24T07:28:11;21.50;;;5.23;;
18716;SDS011;9487;50.892;6.906;2022-12-24T07:30:38;17.37;;;4.33;;
18716;SDS011;9487;50.892;6.906;2022-12-24T07:33:06;16.17;;;4.30;;
18716;SDS011;9487;50.892;6.906;2022-12-24T07:35:33;15.20;;;3.73;;
18716;SDS011;9487;50.892;6.906;2022-12-24T07:38:00;18.87;;;4.90;;
18716;SDS011;9487;50.892;6.906;2022-12-24T07:40:27;15.70;;;4.60;;
18716;SDS011;9487;50.892;6.906;2022-12-24T07:42:54;18.03;;;4.77;;
18716;SDS011;9487;50.892;6.906;2022-12-24T07:45:21;15.70;;;4.97;;
18716;SDS011;9487;50.892;6.906;2022-12-24T07:47:48;15.63;;;4.40;;
18716;SDS011;9487;50.892;6.906;2022-12-24T07:50:16;19.63;;;4.60;;
18716;SDS011;9487;50.892;6.906;2022-12-24T07:52:43;18.83;;;4.53;;
18716;SDS011;9487;50.892;6.906;2022-12-24T07:55:10;20.47;;;5.10;;
18716;SDS011;9487;50.892;6.906;2022-12-24T07:57:36;18.33;;;4.57;;
18716;SDS011;9487;50.892;6.906;2022-12-24T08:00:04;20.07;;;4.90;;
18716;SDS011;9487;50.892;6.906;2022-12-24T08:02:31;17.23;;;4.13;;
18716;SDS011;9487;50.892;6.906;2022-12-24T08:05:00;17.67;;;4.87;;
18716;SDS011;9487;50.892;6.906;2022-12-24T08:07:28;13.73;;;4.50;;
18716;SDS011;9487;50.892;6.906;2022-12-24T08:09:55;17.63;;;4.83;;
18716;SDS011;9487;50.892;6.906;2022-12-24T08:12:22;18.30;;;4.77;;
18716;SDS011;9487;50.892;6.906;2022-12-24T08:14:48;15.87;;;4.10;;
18716;SDS011;9487;50.892;6.906;2022-12-24T08:17:15;22.00;;;4.90;;
18716;SDS011;9487;50.892;6.906;2022-12-24T08:19:42;24.00;;;5.17;;
18716;SDS011;9487;50.892;6.906;2022-12-24T08:22:09;18.63;;;4.93;;
18716;SDS011;9487;50.892;6.906;2022-12-24T08:24:37;19.03;;;4.73;;
18716;SDS011;9487;50.892;6.906;2022-12-24T08:27:04;18.30;;;5.00;;
18716;SDS011;9487;50.892;6.906;2022-12-24T08:29:30;15.73;;;4.17;;
18716;SDS011;9487;50.892;6.906;2022-12-24T08:31:57;20.27;;;5.00;;
18716;SDS011;9487;50.892;6.906;2022-12-24T08:34:24;19.33;;;4.50;;
18716;SDS011;9487;50.892;6.906;2022-12-24T08:36:52;19.37;;;5.17;;
18716;SDS011;9487;50.892;6.906;2022-12-24T08:39:19;16.50;;;4.57;;
18716;SDS011;9487;50.892;6.906;2022-12-24T08:41:47;18.33;;;4.00;;
18716;SDS011;9487;50.892;6.906;2022-12-24T08:44:14;16.77;;;4.73;;
18716;SDS011;9487;50.892;6.906;2022-12-24T08:46:41;19.20;;;4.97;;
18716;SDS011;9487;50.892;6.906;2022-12-24T08:49:07;19.23;;;4.30;;
18716;SDS011;9487;50.892;6.906;2022-12-24T08:51:34;19.47;;;4.73;;
18716;SDS011;9487;50.892;6.906;2022-12-24T08:54:01;18.07;;;5.07;;
18716;SDS011;9487;50.892;6.906;2022-12-24T08:56:28;24.30;;;5.53;;
18716;SDS011;9487;50.892;6.906;2022-12-24T08:58:56;22.30;;;5.10;;
18716;SDS011;9487;50.892;6.906;2022-12-24T09:01:23;22.47;;;5.50;;
18716;SDS011;9487;50.892;6.906;2022-12-24T09:03:49;24.80;;;4.77;;
18716;SDS011;9487;50.892;6.906;2022-12-24T09:06:16;21.63;;;6.20;;
18716;SDS011;9487;50.892;6.906;2022-12-24T09:08:43;21.33;;;5.07;;
18716;SDS011;9487;50.892;6.906;2022-12-24T09:11:10;19.50;;;5.47;;
18716;SDS011;9487;50.892;6.906;2022-12-24T09:13:39;21.93;;;5.30;;
18716;SDS011;9487;50.892;6.906;2022-12-24T09:16:07;17.37;;;4.57;;
18716;SDS011;9487;50.892;6.906;2022-12-24T09:18:34;22.10;;;5.30;;
18716;SDS011;9487;50.892;6.906;2022-12-24T09:21:01;19.30;;;4.87;;
18716;SDS011;9487;50.892;6.906;2022-12-24T09:23:30;24.93;;;5.20;;
18716;SDS011;9487;50.892;6.906;2022-12-24T09:25:57;22.03;;;5.03;;
18716;SDS011;9487;50.892;6.906;2022-12-24T09:28:24;24.10;;;5.03;;
18716;SDS011;9487;50.892;6.906;2022-12-24T09:30:55;20.03;;;5.00;;
18716;SDS011;9487;50.892;6.906;2022-12-24T09:33:24;23.60;;;5.47;;
18716;SDS011;9487;50.892;6.906;2022-12-24T09:35:52;17.63;;;4.27;;
18716;SDS011;9487;50.892;6.906;2022-12-24T09:38:19;19.20;;;5.17;;
18716;SDS011;9487;50.892;6.906;2022-12-24T09:40:47;16.97;;;5.20;;
18716;SDS011;9487;50.892;6.906;2022-12-24T09:43:15;21.60;;;4.70;;
18716;SDS011;9487;50.892;6.906;2022-12-24T09:45:45;19.77;;;4.30;;
18716;SDS011;9487;50.892;6.906;2022-12-24T09:48:19;18.20;;;4.70;;
18716;SDS011;9487;50.892;6.906;2022-12-24T09:50:50;18.23;;;4.67;;
18716;SDS011;9487;50.892;6.906;2022-12-24T09:53:23;21.10;;;5.40;;
18716;SDS011;9487;50.892;6.906;2022-12-24T09:55:59;19.50;;;5.33;;
18716;SDS011;9487;50.892;6.906;2022-12-24T09:58:29;19.57;;;5.67;;
18716;SDS011;9487;50.892;6.906;2022-12-24T10:00:59;21.43;;;5.23;;
18716;SDS011;9487;50.892;6.906;2022-12-24T10:03:26;18.30;;;4.60;;
18716;SDS011;9487;50.892;6.906;2022-12-24T10:06:00;15.60;;;4.70;;
18716;SDS011;9487;50.892;6.906;2022-12-24T10:08:35;24.73;;;5.07;;
18716;SDS011;9487;50.892;6.906;2022-12-24T10:11:10;18.97;;;5.03;;
18716;SDS011;9487;50.892;6.906;2022-12-24T10:13:46;17.80;;;4.50;;
18716;SDS011;9487;50.892;6.906;2022-12-24T10:16:23;20.30;;;5.40;;
18716;SDS011;9487;50.892;6.906;2022-12-24T10:18:58;21.40;;;4.90;;
18716;SDS011;9487;50.892;6.906;2022-12-24T10:21:35;20.43;;;5.17;;
18716;SDS011;9487;50.892;6.906;2022-12-24T10:24:09;23.00;;;5.10;;
18716;SDS011;9487;50.892;6.906;2022-12-24T10:26:43;17.63;;;5.53;;
18716;SDS011;9487;50.892;6.906;2022-12-24T10:29:12;22.47;;;5.33;;
18716;SDS011;9487;50.892;6.906;2022-12-24T10:31:44;18.37;;;4.80;;
18716;SDS011;9487;50.892;6.906;2022-12-24T10:34:16;21.00;;;5.13;;
18716;SDS011;9487;50.892;6.906;2022-12-24T10:36:49;20.87;;;4.73;;
18716;SDS011;9487;50.892;6.906;2022-12-24T10:39:17;21.97;;;4.70;;
18716;SDS011;9487;50.892;6.906;2022-12-24T10:41:46;22.40;;;5.17;;
18716;SDS011;9487;50.892;6.906;2022-12-24T10:44:17;15.57;;;4.60;;
18716;SDS011;9487;50.892;6.906;2022-12-24T10:46:46;22.43;;;6.00;;
18716;SDS011;9487;50.892;6.906;2022-12-24T10:49:14;20.60;;;4.90;;
18716;SDS011;9487;50.892;6.906;2022-12-24T10:51:44;17.57;;;5.20;;
18716;SDS011;9487;50.892;6.906;2022-12-24T10:54:16;26.80;;;5.20;;
18716;SDS011;9487;50.892;6.906;2022-12-24T10:56:45;24.97;;;5.57;;
18716;SDS011;9487;50.892;6.906;2022-12-24T10:59:24;19.83;;;5.20;;
18716;SDS011;9487;50.892;6.906;2022-12-24T11:01:53;21.00;;;5.10;;
18716;SDS011;9487;50.892;6.906;2022-12-24T11:04:21;15.57;;;4.60;;
18716;SDS011;9487;50.892;6.906;2022-12-24T11:06:56;14.20;;;4.50;;
18716;SDS011;9487;50.892;6.906;2022-12-24T11:09:27;18.27;;;5.40;;
18716;SDS011;9487;50.892;6.906;2022-12-24T11:11:55;22.27;;;4.60;;
18716;SDS011;9487;50.892;6.906;2022-12-24T11:14:23;15.70;;;5.13;;
18716;SDS011;9487;50.892;6.906;2022-12-24T11:16:52;21.13;;;4.83;;
18716;SDS011;9487;50.892;6.906;2022-12-24T11:19:24;22.00;;;5.47;;
18716;SDS011;9487;50.892;6.906;2022-12-24T11:22:00;21.77;;;4.43;;
18716;SDS011;9487;50.892;6.906;2022-12-24T11:24:30;24.07;;;5.10;;
18716;SDS011;9487;50.892;6.906;2022-12-24T11:30:16;22.47;;;5.07;;
18716;SDS011;9487;50.892;6.906;2022-12-24T11:32:49;18.87;;;4.73;;
18716;SDS011;9487;50.892;6.906;2022-12-24T11:35:38;20.23;;;5.60;;
18716;SDS011;9487;50.892;6.906;2022-12-24T11:38:08;17.80;;;5.00;;
18716;SDS011;9487;50.892;6.906;2022-12-24T11:40:39;16.60;;;4.87;;
18716;SDS011;9487;50.892;6.906;2022-12-24T11:43:10;22.17;;;5.33;;
18716;SDS011;9487;50.892;6.906;2022-12-24T11:45:46;18.73;;;5.13;;
18716;SDS011;9487;50.892;6.906;2022-12-24T11:48:25;17.93;;;4.70;;
18716;SDS011;9487;50.892;6.906;2022-12-24T11:50:56;21.57;;;5.23;;
18716;SDS011;9487;50.892;6.906;2022-12-24T11:53:25;17.77;;;4.77;;
18716;SDS011;9487;50.892;6.906;2022-12-24T11:56:00;19.57;;;5.47;;
18716;SDS011;9487;50.892;6.906;2022-12-24T11:58:34;17.40;;;4.87;;
18716;SDS011;9487;50.892;6.906;2022-12-24T12:01:09;17.03;;;5.50;;
18716;SDS011;9487;50.892;6.906;2022-12-24T12:03:41;18.27;;;4.53;;
18716;SDS011;9487;50.892;6.906;2022-12-24T12:06:16;16.57;;;4.93;;
18716;SDS011;9487;50.892;6.906;2022-12-24T12:08:49;18.03;;;4.60;;
18716;SDS011;9487;50.892;6.906;2022-12-24T12:11:22;18.63;;;5.23;;
18716;SDS011;9487;50.892;6.906;2022-12-24T12:13:51;18.90;;;5.30;;
18716;SDS011;9487;50.892;6.906;2022-12-24T12:16:20;22.23;;;5.60;;
18716;SDS011;9487;50.892;6.906;2022-12-24T12:18:53;21.17;;;4.73;;
18716;SDS011;9487;50.892;6.906;2022-12-24T12:21:24;20.37;;;5.17;;
18716;SDS011;9487;50.892;6.906;2022-12-24T12:23:54;22.90;;;5.60;;
18716;SDS011;9487;50.892;6.906;2022-12-24T12:26:27;21.73;;;5.50;;
18716;SDS011;9487;50.892;6.906;2022-12-24T12:28:56;20.07;;;5.80;;
18716;SDS011;9487;50.892;6.906;2022-12-24T12:31:27;17.63;;;4.53;;
18716;SDS011;9487;50.892;6.906;2022-12-24T12:33:59;15.60;;;4.30;;
18716;SDS011;9487;50.892;6.906;2022-12-24T12:36:31;17.93;;;5.00;;
18716;SDS011;9487;50.892;6.906;2022-12-24T12:39:03;21.03;;;5.50;;
18716;SDS011;9487;50.892;6.906;2022-12-24T12:41:36;14.07;;;4.97;;
18716;SDS011;9487;50.892;6.906;2022-12-24T12:47:15;21.63;;;5.03;;
18716;SDS011;9487;50.892;6.906;2022-12-24T12:49:53;17.40;;;4.53;;
18716;SDS011;9487;50.892;6.906;2022-12-24T12:52:32;18.03;;;4.83;;
18716;SDS011;9487;50.892;6.906;2022-12-24T12:55:13;16.97;;;4.90;;
18716;SDS011;9487;50.892;6.906;2022-12-24T12:57:50;19.13;;;4.97;;
18716;SDS011;9487;50.892;6.906;2022-12-24T13:00:22;19.70;;;5.03;;
18716;SDS011;9487;50.892;6.906;2022-12-24T13:02:51;17.33;;;4.53;;
18716;SDS011;9487;50.892;6.906;2022-12-24T13:05:37;15.10;;;4.47;;
18716;SDS011;9487;50.892;6.906;2022-12-24T13:08:41;17.83;;;4.93;;
18716;SDS011;9487;50.892;6.906;2022-12-24T13:11:36;19.37;;;4.40;;
18716;SDS011;9487;50.892;6.906;2022-12-24T13:14:30;16.90;;;4.13;;
18716;SDS011;9487;50.892;6.906;2022-12-24T13:17:20;15.93;;;4.73;;
18716;SDS011;9487;50.892;6.906;2022-12-24T13:20:15;20.10;;;5.00;;
18716;SDS011;9487;50.892;6.906;2022-12-24T13:22:47;21.37;;;4.73;;
18716;SDS011;9487;50.892;6.906;2022-12-24T13:25:22;14.70;;;4.83;;
18716;SDS011;9487;50.892;6.906;2022-12-24T13:27:52;20.67;;;5.17;;
18716;SDS011;9487;50.892;6.906;2022-12-24T13:30:36;17.40;;;4.60;;
18716;SDS011;9487;50.892;6.906;2022-12-24T13:33:06;19.10;;;4.83;;
18716;SDS011;9487;50.892;6.906;2022-12-24T13:35:36;20.10;;;4.57;;
18716;SDS011;9487;50.892;6.906;2022-12-24T13:44:16;14.30;;;3.70;;
18716;SDS011;9487;50.892;6.906;2022-12-24T13:46:46;17.40;;;4.20;;
18716;SDS011;9487;50.892;6.906;2022-12-24T13:49:17;18.13;;;4.43;;
18716;SDS011;9487;50.892;6.906;2022-12-24T13:51:45;12.67;;;3.60;;
18716;SDS011;9487;50.892;6.906;2022-12-24T13:54:14;16.37;;;4.23;;
18716;SDS011;9487;50.892;6.906;2022-12-24T13:56:46;14.43;;;4.23;;
18716;SDS011;9487;50.892;6.906;2022-12-24T13:59:19;12.10;;;3.63;;
18716;SDS011;9487;50.892;6.906;2022-12-24T14:01:54;15.07;;;4.00;;
18716;SDS011;9487;50.892;6.906;2022-12-24T14:04:23;14.60;;;3.77;;
18716;SDS011;9487;50.892;6.906;2022-12-24T14:06:53;17.87;;;3.97;;
18716;SDS011;9487;50.892;6.906;2022-12-24T14:09:23;14.77;;;4.17;;
18716;SDS011;9487;50.892;6.906;2022-12-24T14:18:11;15.13;;;4.73;;
18716;SDS011;9487;50.892;6.906;2022-12-24T14:20:42;13.70;;;3.83;;
18716;SDS011;9487;50.892;6.906;2022-12-24T14:23:14;16.33;;;4.17;;
18716;SDS011;9487;50.892;6.906;2022-12-24T14:25:52;19.57;;;5.33;;
18716;SDS011;9487;50.892;6.906;2022-12-24T14:28:19;15.07;;;4.33;;
18716;SDS011;9487;50.892;6.906;2022-12-24T14:30:58;13.67;;;4.40;;
18716;SDS011;9487;50.892;6.906;2022-12-24T14:33:30;19.30;;;4.37;;
18716;SDS011;9487;50.892;6.906;2022-12-24T14:35:58;15.70;;;4.30;;
18716;SDS011;9487;50.892;6.906;2022-12-24T14:38:27;15.63;;;4.90;;
18716;SDS011;9487;50.892;6.906;2022-12-24T14:40:54;15.97;;;4.30;;
18716;SDS011;9487;50.892;6.906;2022-12-24T14:43:34;16.47;;;3.97;;
18716;SDS011;9487;50.892;6.906;2022-12-24T14:46:14;20.30;;;4.50;;
18716;SDS011;9487;50.892;6.906;2022-12-24T14:48:50;15.10;;;3.90;;
18716;SDS011;9487;50.892;6.906;2022-12-24T14:51:21;17.10;;;4.83;;
18716;SDS011;9487;50.892;6.906;2022-12-24T14:54:06;11.50;;;4.30;;
18716;SDS011;9487;50.892;6.906;2022-12-24T14:59:49;18.53;;;4.33;;
18716;SDS011;9487;50.892;6.906;2022-12-24T15:02:24;18.80;;;4.70;;
18716;SDS011;9487;50.892;6.906;2022-12-24T15:05:07;17.63;;;4.37;;
18716;SDS011;9487;50.892;6.906;2022-12-24T15:07:36;16.77;;;4.70;;
18716;SDS011;9487;50.892;6.906;2022-12-24T15:10:17;18.67;;;4.27;;
18716;SDS011;9487;50.892;6.906;2022-12-24T15:12:49;17.80;;;4.80;;
18716;SDS011;9487;50.892;6.906;2022-12-24T15:15:17;11.50;;;3.97;;
18716;SDS011;9487;50.892;6.906;2022-12-24T15:17:45;10.17;;;3.80;;
18716;SDS011;9487;50.892;6.906;2022-12-24T15:20:14;15.20;;;5.93;;
18716;SDS011;9487;50.892;6.906;2022-12-24T15:22:44;17.87;;;8.50;;
18716;SDS011;9487;50.892;6.906;2022-12-24T15:25:18;16.30;;;7.20;;
18716;SDS011;9487;50.892;6.906;2022-12-24T15:27:47;12.10;;;5.67;;
18716;SDS011;9487;50.892;6.906;2022-12-24T15:30:15;16.57;;;5.97;;
18716;SDS011;9487;50.892;6.906;2022-12-24T15:32:44;17.80;;;5.70;;
18716;SDS011;9487;50.892;6.906;2022-12-24T15:38:17;19.37;;;5.00;;
18716;SDS011;9487;50.892;6.906;2022-12-24T15:40:50;12.83;;;5.10;;